sensor_id;sensor_type;location;lat;lon;timestamp;temperature;humidity
25668;DHT22;18003;-33.830;151.202;2022-09-28T00:00:47;17.20;99.90
25668;DHT22;18003;-33.830;151.202;2022-09-28T00:03:20;17.20;99.90
25668;DHT22;18003;-33.830;151.202;2022-09-28T00:05:48;17.20;99.90
25668;DHT22;18003;-33.830;151.202;2022-09-28T00:08:18;17.20;99.90
25668;DHT22;18003;-33.830;151.202;2022-09-28T00:10:53;17.20;99.90
25668;DHT22;18003;-33.830;151.202;2022-09-28T00:13:21;17.30;99.90
25668;DHT22;18003;-33.830;151.202;2022-09-28T00:18:35;17.20;99.90
25668;DHT22;18003;-33.830;151.202;2022-09-28T00:21:10;17.20;99.90
25668;DHT22;18003;-33.830;151.202;2022-09-28T00:23:40;17.20;99.90
25668;DHT22;18003;-33.830;151.202;2022-09-28T00:26:28;17.20;99.90
25668;DHT22;18003;-33.830;151.202;2022-09-28T00:28:59;17.20;99.90
25668;DHT22;18003;-33.830;151.202;2022-09-28T00:31:32;17.20;99.90
25668;DHT22;18003;-33.830;151.202;2022-09-28T00:34:00;17.20;99.90
25668;DHT22;18003;-33.830;151.202;2022-09-28T00:36:32;17.20;99.90
25668;DHT22;18003;-33.830;151.202;2022-09-28T00:39:07;17.30;99.90
25668;DHT22;18003;-33.830;151.202;2022-09-28T00:41:37;17.20;99.90
25668;DHT22;18003;-33.830;151.202;2022-09-28T00:47:11;17.30;99.90
25668;DHT22;18003;-33.830;151.202;2022-09-28T00:52:40;17.30;99.90
25668;DHT22;18003;-33.830;151.202;2022-09-28T00:55:15;17.30;99.90
25668;DHT22;18003;-33.830;151.202;2022-09-28T00:57:46;17.40;99.90
25668;DHT22;18003;-33.830;151.202;2022-09-28T01:00:14;17.40;99.90
25668;DHT22;18003;-33.830;151.202;2022-09-28T01:02:45;17.30;99.90
25668;DHT22;18003;-33.830;151.202;2022-09-28T01:05:17;17.40;99.90
25668;DHT22;18003;-33.830;151.202;2022-09-28T01:07:47;17.40;99.90
25668;DHT22;18003;-33.830;151.202;2022-09-28T01:10:17;17.50;99.90
25668;DHT22;18003;-33.830;151.202;2022-09-28T01:12:47;17.50;99.90
25668;DHT22;18003;-33.830;151.202;2022-09-28T01:15:19;17.60;99.90
25668;DHT22;18003;-33.830;151.202;2022-09-28T01:18:03;17.60;99.90
25668;DHT22;18003;-33.830;151.202;2022-09-28T01:28:47;17.60;99.90
25668;DHT22;18003;-33.830;151.202;2022-09-28T01:31:16;17.60;99.90
25668;DHT22;18003;-33.830;151.202;2022-09-28T01:33:49;17.60;99.90
25668;DHT22;18003;-33.830;151.202;2022-09-28T01:36:35;17.60;99.90
25668;DHT22;18003;-33.830;151.202;2022-09-28T01:39:24;17.60;99.90
25668;DHT22;18003;-33.830;151.202;2022-09-28T01:41:50;17.70;99.90
25668;DHT22;18003;-33.830;151.202;2022-09-28T01:44:22;17.70;99.90
25668;DHT22;18003;-33.830;151.202;2022-09-28T01:46:53;17.70;99.90
25668;DHT22;18003;-33.830;151.202;2022-09-28T01:49:31;17.70;99.90
25668;DHT22;18003;-33.830;151.202;2022-09-28T01:52:12;17.70;99.90
25668;DHT22;18003;-33.830;151.202;2022-09-28T01:54:43;17.70;99.90
25668;DHT22;18003;-33.830;151.202;2022-09-28T02:00:08;17.70;99.90
25668;DHT22;18003;-33.830;151.202;2022-09-28T02:03:10;17.80;99.90
25668;DHT22;18003;-33.830;151.202;2022-09-28T02:05:41;17.70;99.90
25668;DHT22;18003;-33.830;151.202;2022-09-28T02:08:19;17.70;99.90
25668;DHT22;18003;-33.830;151.202;2022-09-28T02:11:18;17.70;99.90
25668;DHT22;18003;-33.830;151.202;2022-09-28T02:13:27;17.70;99.90
25668;DHT22;18003;-33.830;151.202;2022-09-28T02:18:43;17.70;99.90
25668;DHT22;18003;-33.830;151.202;2022-09-28T02:21:22;17.80;99.90
25668;DHT22;18003;-33.830;151.202;2022-09-28T02:24:07;17.80;99.90
25668;DHT22;18003;-33.830;151.202;2022-09-28T02:26:38;17.80;99.90
25668;DHT22;18003;-33.830;151.202;2022-09-28T02:29:04;17.90;99.90
25668;DHT22;18003;-33.830;151.202;2022-09-28T02:31:39;17.90;99.90
25668;DHT22;18003;-33.830;151.202;2022-09-28T02:34:05;17.90;99.90
25668;DHT22;18003;-33.830;151.202;2022-09-28T02:36:36;17.90;99.90
25668;DHT22;18003;-33.830;151.202;2022-09-28T02:39:11;17.90;99.90
25668;DHT22;18003;-33.830;151.202;2022-09-28T02:47:50;17.90;99.90
25668;DHT22;18003;-33.830;151.202;2022-09-28T02:50:35;17.90;99.90
25668;DHT22;18003;-33.830;151.202;2022-09-28T02:53:20;18.00;99.90
25668;DHT22;18003;-33.830;151.202;2022-09-28T02:55:51;18.00;99.90
25668;DHT22;18003;-33.830;151.202;2022-09-28T02:58:31;18.00;99.90
25668;DHT22;18003;-33.830;151.202;2022-09-28T03:01:06;18.00;99.90
25668;DHT22;18003;-33.830;151.202;2022-09-28T03:03:53;18.10;99.90
25668;DHT22;18003;-33.830;151.202;2022-09-28T03:09:05;18.20;99.90
25668;DHT22;18003;-33.830;151.202;2022-09-28T03:11:46;18.20;99.90
25668;DHT22;18003;-33.830;151.202;2022-09-28T03:14:17;18.20;99.90
25668;DHT22;18003;-33.830;151.202;2022-09-28T03:16:48;18.20;99.90
25668;DHT22;18003;-33.830;151.202;2022-09-28T03:19:20;18.20;99.90
25668;DHT22;18003;-33.830;151.202;2022-09-28T03:21:50;18.20;99.90
25668;DHT22;18003;-33.830;151.202;2022-09-28T03:24:20;18.20;99.90
25668;DHT22;18003;-33.830;151.202;2022-09-28T03:26:49;18.20;99.90
25668;DHT22;18003;-33.830;151.202;2022-09-28T03:29:20;18.20;99.90
25668;DHT22;18003;-33.830;151.202;2022-09-28T03:31:50;18.20;99.90
25668;DHT22;18003;-33.830;151.202;2022-09-28T03:34:20;18.20;99.90
25668;DHT22;18003;-33.830;151.202;2022-09-28T03:36:50;18.20;99.90
25668;DHT22;18003;-33.830;151.202;2022-09-28T03:39:20;18.10;99.90
25668;DHT22;18003;-33.830;151.202;2022-09-28T03:41:50;18.10;99.90
25668;DHT22;18003;-33.830;151.202;2022-09-28T03:44:20;18.10;99.90
25668;DHT22;18003;-33.830;151.202;2022-09-28T03:46:50;18.10;99.90
25668;DHT22;18003;-33.830;151.202;2022-09-28T03:49:20;18.10;99.90
25668;DHT22;18003;-33.830;151.202;2022-09-28T03:51:50;18.10;99.90
25668;DHT22;18003;-33.830;151.202;2022-09-28T03:54:20;18.10;99.90
25668;DHT22;18003;-33.830;151.202;2022-09-28T03:56:50;18.10;99.90
25668;DHT22;18003;-33.830;151.202;2022-09-28T03:59:20;18.10;99.90
25668;DHT22;18003;-33.830;151.202;2022-09-28T04:01:51;18.00;99.90
25668;DHT22;18003;-33.830;151.202;2022-09-28T04:04:21;18.10;99.90
25668;DHT22;18003;-33.830;151.202;2022-09-28T04:06:51;18.00;99.90
25668;DHT22;18003;-33.830;151.202;2022-09-28T04:09:21;18.00;99.90
25668;DHT22;18003;-33.830;151.202;2022-09-28T04:11:51;17.90;99.90
25668;DHT22;18003;-33.830;151.202;2022-09-28T04:14:21;18.00;99.90
25668;DHT22;18003;-33.830;151.202;2022-09-28T04:16:55;17.90;99.90
25668;DHT22;18003;-33.830;151.202;2022-09-28T04:19:24;17.90;99.90
25668;DHT22;18003;-33.830;151.202;2022-09-28T04:21:57;17.90;99.90
25668;DHT22;18003;-33.830;151.202;2022-09-28T04:24:25;17.90;99.90
25668;DHT22;18003;-33.830;151.202;2022-09-28T04:26:55;17.90;99.90
25668;DHT22;18003;-33.830;151.202;2022-09-28T04:29:27;18.00;99.90
25668;DHT22;18003;-33.830;151.202;2022-09-28T04:31:59;18.00;99.90
25668;DHT22;18003;-33.830;151.202;2022-09-28T04:34:30;17.90;99.90
25668;DHT22;18003;-33.830;151.202;2022-09-28T04:37:00;18.00;99.90
25668;DHT22;18003;-33.830;151.202;2022-09-28T04:39:30;18.00;99.90
25668;DHT22;18003;-33.830;151.202;2022-09-28T04:42:02;18.00;99.90
25668;DHT22;18003;-33.830;151.202;2022-09-28T04:44:32;18.00;99.90
25668;DHT22;18003;-33.830;151.202;2022-09-28T04:47:03;18.10;99.90
25668;DHT22;18003;-33.830;151.202;2022-09-28T04:49:33;18.00;99.90
25668;DHT22;18003;-33.830;151.202;2022-09-28T04:52:06;18.10;99.90
25668;DHT22;18003;-33.830;151.202;2022-09-28T04:54:36;18.10;99.90
25668;DHT22;18003;-33.830;151.202;2022-09-28T04:57:06;18.10;99.90
25668;DHT22;18003;-33.830;151.202;2022-09-28T04:59:36;18.10;99.90
25668;DHT22;18003;-33.830;151.202;2022-09-28T05:02:06;18.10;99.90
25668;DHT22;18003;-33.830;151.202;2022-09-28T05:04:36;18.00;99.90
25668;DHT22;18003;-33.830;151.202;2022-09-28T05:07:06;18.00;99.90
25668;DHT22;18003;-33.830;151.202;2022-09-28T05:09:36;18.00;99.90
25668;DHT22;18003;-33.830;151.202;2022-09-28T05:12:08;18.10;99.90
25668;DHT22;18003;-33.830;151.202;2022-09-28T05:14:37;18.10;99.90
25668;DHT22;18003;-33.830;151.202;2022-09-28T05:17:08;18.10;99.90
25668;DHT22;18003;-33.830;151.202;2022-09-28T05:19:38;18.10;99.90
25668;DHT22;18003;-33.830;151.202;2022-09-28T05:22:09;18.10;99.90
25668;DHT22;18003;-33.830;151.202;2022-09-28T05:24:40;18.00;99.90
25668;DHT22;18003;-33.830;151.202;2022-09-28T05:27:10;18.00;99.90
25668;DHT22;18003;-33.830;151.202;2022-09-28T05:29:40;18.10;99.90
25668;DHT22;18003;-33.830;151.202;2022-09-28T05:32:10;18.10;99.90
25668;DHT22;18003;-33.830;151.202;2022-09-28T05:34:40;18.10;99.90
25668;DHT22;18003;-33.830;151.202;2022-09-28T05:37:10;18.10;99.90
25668;DHT22;18003;-33.830;151.202;2022-09-28T05:39:41;18.10;99.90
25668;DHT22;18003;-33.830;151.202;2022-09-28T05:42:11;18.10;99.90
25668;DHT22;18003;-33.830;151.202;2022-09-28T05:44:41;18.00;99.90
25668;DHT22;18003;-33.830;151.202;2022-09-28T05:47:11;18.00;99.90
25668;DHT22;18003;-33.830;151.202;2022-09-28T05:49:41;18.00;99.90
25668;DHT22;18003;-33.830;151.202;2022-09-28T05:52:11;18.00;99.90
25668;DHT22;18003;-33.830;151.202;2022-09-28T05:54:41;18.10;99.90
25668;DHT22;18003;-33.830;151.202;2022-09-28T05:57:12;18.00;99.90
25668;DHT22;18003;-33.830;151.202;2022-09-28T05:59:42;18.10;99.90
25668;DHT22;18003;-33.830;151.202;2022-09-28T06:02:12;18.00;99.90
25668;DHT22;18003;-33.830;151.202;2022-09-28T06:04:42;18.10;99.90
25668;DHT22;18003;-33.830;151.202;2022-09-28T06:07:17;18.00;99.90
25668;DHT22;18003;-33.830;151.202;2022-09-28T06:09:43;18.10;99.90
25668;DHT22;18003;-33.830;151.202;2022-09-28T06:12:13;18.00;99.90
25668;DHT22;18003;-33.830;151.202;2022-09-28T06:14:43;18.00;99.90
25668;DHT22;18003;-33.830;151.202;2022-09-28T06:17:13;18.00;99.90
25668;DHT22;18003;-33.830;151.202;2022-09-28T06:19:48;18.00;99.90
25668;DHT22;18003;-33.830;151.202;2022-09-28T06:22:18;18.00;99.90
25668;DHT22;18003;-33.830;151.202;2022-09-28T06:24:49;17.90;99.90
25668;DHT22;18003;-33.830;151.202;2022-09-28T06:27:24;17.90;99.90
25668;DHT22;18003;-33.830;151.202;2022-09-28T06:29:54;17.90;99.90
25668;DHT22;18003;-33.830;151.202;2022-09-28T06:32:24;17.90;99.90
25668;DHT22;18003;-33.830;151.202;2022-09-28T06:34:55;17.90;99.90
25668;DHT22;18003;-33.830;151.202;2022-09-28T06:37:25;17.90;99.90
25668;DHT22;18003;-33.830;151.202;2022-09-28T06:39:55;17.90;99.90
25668;DHT22;18003;-33.830;151.202;2022-09-28T06:42:25;17.90;99.90
25668;DHT22;18003;-33.830;151.202;2022-09-28T06:44:56;17.90;99.90
25668;DHT22;18003;-33.830;151.202;2022-09-28T06:47:26;17.90;99.90
25668;DHT22;18003;-33.830;151.202;2022-09-28T06:49:57;17.80;99.90
25668;DHT22;18003;-33.830;151.202;2022-09-28T06:52:28;17.90;99.90
25668;DHT22;18003;-33.830;151.202;2022-09-28T06:54:57;17.90;99.90
25668;DHT22;18003;-33.830;151.202;2022-09-28T06:57:27;17.80;99.90
25668;DHT22;18003;-33.830;151.202;2022-09-28T06:59:57;17.80;99.90
25668;DHT22;18003;-33.830;151.202;2022-09-28T07:02:27;17.80;99.90
25668;DHT22;18003;-33.830;151.202;2022-09-28T07:04:58;17.80;99.90
25668;DHT22;18003;-33.830;151.202;2022-09-28T07:07:28;17.80;99.90
25668;DHT22;18003;-33.830;151.202;2022-09-28T07:10:01;17.80;99.90
25668;DHT22;18003;-33.830;151.202;2022-09-28T07:12:30;17.80;99.90
25668;DHT22;18003;-33.830;151.202;2022-09-28T07:15:01;17.80;99.90
25668;DHT22;18003;-33.830;151.202;2022-09-28T07:17:32;17.80;99.90
25668;DHT22;18003;-33.830;151.202;2022-09-28T07:20:02;17.80;99.90
25668;DHT22;18003;-33.830;151.202;2022-09-28T07:22:33;17.80;99.90
25668;DHT22;18003;-33.830;151.202;2022-09-28T07:25:02;17.80;99.90
25668;DHT22;18003;-33.830;151.202;2022-09-28T07:27:38;17.80;99.90
25668;DHT22;18003;-33.830;151.202;2022-09-28T07:30:23;17.80;99.90
25668;DHT22;18003;-33.830;151.202;2022-09-28T07:32:54;17.80;99.90
25668;DHT22;18003;-33.830;151.202;2022-09-28T07:35:28;17.80;99.90
25668;DHT22;18003;-33.830;151.202;2022-09-28T07:38:03;17.80;99.90
25668;DHT22;18003;-33.830;151.202;2022-09-28T07:40:39;17.80;99.90
25668;DHT22;18003;-33.830;151.202;2022-09-28T07:43:29;17.80;99.90
25668;DHT22;18003;-33.830;151.202;2022-09-28T07:45:59;17.80;99.90
25668;DHT22;18003;-33.830;151.202;2022-09-28T07:48:29;17.80;99.90
25668;DHT22;18003;-33.830;151.202;2022-09-28T07:51:00;17.80;99.90
25668;DHT22;18003;-33.830;151.202;2022-09-28T07:53:30;17.70;99.90
25668;DHT22;18003;-33.830;151.202;2022-09-28T07:56:02;17.80;99.90
25668;DHT22;18003;-33.830;151.202;2022-09-28T07:58:37;17.80;99.90
25668;DHT22;18003;-33.830;151.202;2022-09-28T08:01:09;17.80;99.90
25668;DHT22;18003;-33.830;151.202;2022-09-28T08:03:41;17.80;99.90
25668;DHT22;18003;-33.830;151.202;2022-09-28T08:06:16;17.70;99.90
25668;DHT22;18003;-33.830;151.202;2022-09-28T08:08:46;17.70;99.90
25668;DHT22;18003;-33.830;151.202;2022-09-28T08:11:23;17.70;99.90
25668;DHT22;18003;-33.830;151.202;2022-09-28T08:14:08;17.70;99.90
25668;DHT22;18003;-33.830;151.202;2022-09-28T08:16:38;17.70;99.90
25668;DHT22;18003;-33.830;151.202;2022-09-28T08:19:11;17.70;99.90
25668;DHT22;18003;-33.830;151.202;2022-09-28T08:21:45;17.70;99.90
25668;DHT22;18003;-33.830;151.202;2022-09-28T08:24:17;17.70;99.90
25668;DHT22;18003;-33.830;151.202;2022-09-28T08:26:55;17.70;99.90
25668;DHT22;18003;-33.830;151.202;2022-09-28T08:29:22;17.70;99.90
25668;DHT22;18003;-33.830;151.202;2022-09-28T08:31:57;17.70;99.90
25668;DHT22;18003;-33.830;151.202;2022-09-28T08:34:23;17.70;99.90
25668;DHT22;18003;-33.830;151.202;2022-09-28T08:36:57;17.70;99.90
25668;DHT22;18003;-33.830;151.202;2022-09-28T08:39:27;17.60;99.90
25668;DHT22;18003;-33.830;151.202;2022-09-28T08:44:47;17.60;99.90
25668;DHT22;18003;-33.830;151.202;2022-09-28T08:47:23;17.60;99.90
25668;DHT22;18003;-33.830;151.202;2022-09-28T08:50:16;17.70;99.90
25668;DHT22;18003;-33.830;151.202;2022-09-28T08:52:41;17.80;99.90
25668;DHT22;18003;-33.830;151.202;2022-09-28T08:55:16;17.90;99.90
25668;DHT22;18003;-33.830;151.202;2022-09-28T08:58:02;18.00;99.90
25668;DHT22;18003;-33.830;151.202;2022-09-28T09:00:39;18.10;99.90
25668;DHT22;18003;-33.830;151.202;2022-09-28T09:03:17;18.10;99.90
25668;DHT22;18003;-33.830;151.202;2022-09-28T09:09:06;18.20;99.90
25668;DHT22;18003;-33.830;151.202;2022-09-28T09:11:40;18.20;99.90
25668;DHT22;18003;-33.830;151.202;2022-09-28T09:21:54;18.30;99.90
25668;DHT22;18003;-33.830;151.202;2022-09-28T09:24:30;18.30;99.90
25668;DHT22;18003;-33.830;151.202;2022-09-28T09:27:12;18.30;99.90
25668;DHT22;18003;-33.830;151.202;2022-09-28T09:32:16;18.20;99.90
25668;DHT22;18003;-33.830;151.202;2022-09-28T09:37:57;18.20;99.90
25668;DHT22;18003;-33.830;151.202;2022-09-28T09:40:40;18.20;99.90
25668;DHT22;18003;-33.830;151.202;2022-09-28T09:43:38;18.20;99.90
25668;DHT22;18003;-33.830;151.202;2022-09-28T09:46:21;18.20;99.90
25668;DHT22;18003;-33.830;151.202;2022-09-28T09:48:50;18.20;99.90
25668;DHT22;18003;-33.830;151.202;2022-09-28T09:51:28;18.20;99.90
25668;DHT22;18003;-33.830;151.202;2022-09-28T09:54:02;18.20;99.90
25668;DHT22;18003;-33.830;151.202;2022-09-28T09:56:38;18.20;99.90
25668;DHT22;18003;-33.830;151.202;2022-09-28T09:59:12;18.20;99.90
25668;DHT22;18003;-33.830;151.202;2022-09-28T10:01:42;18.20;99.90
25668;DHT22;18003;-33.830;151.202;2022-09-28T10:04:20;18.10;99.90
25668;DHT22;18003;-33.830;151.202;2022-09-28T10:06:57;18.10;99.90
25668;DHT22;18003;-33.830;151.202;2022-09-28T10:09:40;18.20;99.90
25668;DHT22;18003;-33.830;151.202;2022-09-28T10:12:08;18.10;99.90
25668;DHT22;18003;-33.830;151.202;2022-09-28T10:14:39;18.10;99.90
25668;DHT22;18003;-33.830;151.202;2022-09-28T10:17:10;18.10;99.90
25668;DHT22;18003;-33.830;151.202;2022-09-28T10:19:45;18.10;99.90
25668;DHT22;18003;-33.830;151.202;2022-09-28T10:22:20;18.10;99.90
25668;DHT22;18003;-33.830;151.202;2022-09-28T10:24:54;18.10;99.90
25668;DHT22;18003;-33.830;151.202;2022-09-28T10:27:21;18.00;99.90
25668;DHT22;18003;-33.830;151.202;2022-09-28T10:30:02;17.90;99.90
25668;DHT22;18003;-33.830;151.202;2022-09-28T10:32:41;17.80;99.90
25668;DHT22;18003;-33.830;151.202;2022-09-28T10:41:08;18.00;99.90
25668;DHT22;18003;-33.830;151.202;2022-09-28T10:43:37;18.10;99.90
25668;DHT22;18003;-33.830;151.202;2022-09-28T10:46:12;18.10;99.90
25668;DHT22;18003;-33.830;151.202;2022-09-28T10:48:59;18.20;99.90
25668;DHT22;18003;-33.830;151.202;2022-09-28T10:51:48;18.30;99.90
25668;DHT22;18003;-33.830;151.202;2022-09-28T10:54:20;18.30;99.90
25668;DHT22;18003;-33.830;151.202;2022-09-28T10:56:51;18.30;99.90
25668;DHT22;18003;-33.830;151.202;2022-09-28T10:59:43;18.30;99.90
25668;DHT22;18003;-33.830;151.202;2022-09-28T11:02:19;18.20;99.90
25668;DHT22;18003;-33.830;151.202;2022-09-28T11:04:56;18.20;99.90
25668;DHT22;18003;-33.830;151.202;2022-09-28T11:07:22;18.30;99.90
25668;DHT22;18003;-33.830;151.202;2022-09-28T11:09:57;18.30;99.90
25668;DHT22;18003;-33.830;151.202;2022-09-28T11:12:27;18.30;99.90
25668;DHT22;18003;-33.830;151.202;2022-09-28T11:14:59;18.30;99.90
25668;DHT22;18003;-33.830;151.202;2022-09-28T11:20:26;18.30;99.90
25668;DHT22;18003;-33.830;151.202;2022-09-28T11:22:52;18.30;99.90
25668;DHT22;18003;-33.830;151.202;2022-09-28T11:25:29;18.20;99.90
25668;DHT22;18003;-33.830;151.202;2022-09-28T11:27:57;18.20;99.90
25668;DHT22;18003;-33.830;151.202;2022-09-28T11:30:50;18.20;99.90
25668;DHT22;18003;-33.830;151.202;2022-09-28T11:33:30;18.10;99.90
25668;DHT22;18003;-33.830;151.202;2022-09-28T11:36:24;18.20;99.90
25668;DHT22;18003;-33.830;151.202;2022-09-28T11:42:20;18.20;99.90
25668;DHT22;18003;-33.830;151.202;2022-09-28T11:44:49;18.20;99.90
25668;DHT22;18003;-33.830;151.202;2022-09-28T11:47:31;18.20;99.90
25668;DHT22;18003;-33.830;151.202;2022-09-28T11:50:26;18.10;99.90
25668;DHT22;18003;-33.830;151.202;2022-09-28T11:56:02;18.10;99.90
25668;DHT22;18003;-33.830;151.202;2022-09-28T11:58:39;18.10;99.90
25668;DHT22;18003;-33.830;151.202;2022-09-28T12:03:49;18.10;99.90
25668;DHT22;18003;-33.830;151.202;2022-09-28T12:06:28;18.00;99.90
25668;DHT22;18003;-33.830;151.202;2022-09-28T12:08:59;18.10;99.90
25668;DHT22;18003;-33.830;151.202;2022-09-28T12:14:14;18.00;99.90
25668;DHT22;18003;-33.830;151.202;2022-09-28T12:16:50;17.90;99.90
25668;DHT22;18003;-33.830;151.202;2022-09-28T12:19:32;18.00;99.90
25668;DHT22;18003;-33.830;151.202;2022-09-28T12:22:31;17.90;99.90
25668;DHT22;18003;-33.830;151.202;2022-09-28T12:25:10;17.90;99.90
25668;DHT22;18003;-33.830;151.202;2022-09-28T12:30:19;17.90;99.90
25668;DHT22;18003;-33.830;151.202;2022-09-28T12:32:55;17.80;99.90
25668;DHT22;18003;-33.830;151.202;2022-09-28T12:38:51;17.90;99.90
25668;DHT22;18003;-33.830;151.202;2022-09-28T12:44:14;17.90;99.90
25668;DHT22;18003;-33.830;151.202;2022-09-28T12:47:21;17.80;99.90
25668;DHT22;18003;-33.830;151.202;2022-09-28T12:52:53;17.80;99.90
25668;DHT22;18003;-33.830;151.202;2022-09-28T12:58:04;17.80;99.90
25668;DHT22;18003;-33.830;151.202;2022-09-28T13:00:41;17.70;99.90
25668;DHT22;18003;-33.830;151.202;2022-09-28T13:03:26;17.70;99.90
25668;DHT22;18003;-33.830;151.202;2022-09-28T13:11:42;17.70;99.90
25668;DHT22;18003;-33.830;151.202;2022-09-28T13:20:18;17.70;99.90
25668;DHT22;18003;-33.830;151.202;2022-09-28T13:25:24;17.60;99.90
25668;DHT22;18003;-33.830;151.202;2022-09-28T13:27:58;17.60;99.90
25668;DHT22;18003;-33.830;151.202;2022-09-28T13:30:26;17.60;99.90
25668;DHT22;18003;-33.830;151.202;2022-09-28T13:32:57;17.60;99.90
25668;DHT22;18003;-33.830;151.202;2022-09-28T13:35:28;17.60;99.90
25668;DHT22;18003;-33.830;151.202;2022-09-28T13:44:06;17.60;99.90
25668;DHT22;18003;-33.830;151.202;2022-09-28T13:46:59;17.60;99.90
25668;DHT22;18003;-33.830;151.202;2022-09-28T13:49:47;17.60;99.90
25668;DHT22;18003;-33.830;151.202;2022-09-28T13:55:29;17.60;99.90
25668;DHT22;18003;-33.830;151.202;2022-09-28T14:00:56;17.50;99.90
25668;DHT22;18003;-33.830;151.202;2022-09-28T14:16:43;17.50;99.90
25668;DHT22;18003;-33.830;151.202;2022-09-28T14:24:43;17.40;99.90
25668;DHT22;18003;-33.830;151.202;2022-09-28T14:35:32;17.40;99.90
25668;DHT22;18003;-33.830;151.202;2022-09-28T14:37:56;17.40;99.90
25668;DHT22;18003;-33.830;151.202;2022-09-28T14:48:56;17.40;99.90
25668;DHT22;18003;-33.830;151.202;2022-09-28T14:59:37;17.30;99.90
25668;DHT22;18003;-33.830;151.202;2022-09-28T15:02:16;17.30;99.90
25668;DHT22;18003;-33.830;151.202;2022-09-28T15:05:41;17.30;99.90
25668;DHT22;18003;-33.830;151.202;2022-09-28T15:07:28;17.30;99.90
25668;DHT22;18003;-33.830;151.202;2022-09-28T15:10:00;17.30;99.90
25668;DHT22;18003;-33.830;151.202;2022-09-28T15:12:33;17.30;99.90
25668;DHT22;18003;-33.830;151.202;2022-09-28T15:15:15;17.30;99.90
25668;DHT22;18003;-33.830;151.202;2022-09-28T15:17:40;17.30;99.90
25668;DHT22;18003;-33.830;151.202;2022-09-28T15:20:26;17.30;99.90
25668;DHT22;18003;-33.830;151.202;2022-09-28T15:23:21;17.30;99.90
25668;DHT22;18003;-33.830;151.202;2022-09-28T15:25:31;17.20;99.90
25668;DHT22;18003;-33.830;151.202;2022-09-28T15:28:15;17.20;99.90
25668;DHT22;18003;-33.830;151.202;2022-09-28T15:30:44;17.20;99.90
25668;DHT22;18003;-33.830;151.202;2022-09-28T15:33:33;17.20;99.90
25668;DHT22;18003;-33.830;151.202;2022-09-28T15:36:34;17.20;99.90
25668;DHT22;18003;-33.830;151.202;2022-09-28T15:39:08;17.20;99.90
25668;DHT22;18003;-33.830;151.202;2022-09-28T15:41:37;17.20;99.90
25668;DHT22;18003;-33.830;151.202;2022-09-28T15:46:46;17.20;99.90
25668;DHT22;18003;-33.830;151.202;2022-09-28T15:49:30;17.20;99.90
25668;DHT22;18003;-33.830;151.202;2022-09-28T15:51:55;17.20;99.90
25668;DHT22;18003;-33.830;151.202;2022-09-28T15:54:36;17.20;99.90
25668;DHT22;18003;-33.830;151.202;2022-09-28T15:57:03;17.20;99.90
25668;DHT22;18003;-33.830;151.202;2022-09-28T15:59:34;17.10;99.90
25668;DHT22;18003;-33.830;151.202;2022-09-28T16:02:21;17.20;99.90
25668;DHT22;18003;-33.830;151.202;2022-09-28T16:04:56;17.10;99.90
25668;DHT22;18003;-33.830;151.202;2022-09-28T16:07:35;17.10;99.90
25668;DHT22;18003;-33.830;151.202;2022-09-28T16:12:45;17.10;99.90
25668;DHT22;18003;-33.830;151.202;2022-09-28T16:15:34;17.10;99.90
25668;DHT22;18003;-33.830;151.202;2022-09-28T16:18:13;17.10;99.90
25668;DHT22;18003;-33.830;151.202;2022-09-28T16:20:37;17.10;99.90
25668;DHT22;18003;-33.830;151.202;2022-09-28T16:23:21;17.10;99.90
25668;DHT22;18003;-33.830;151.202;2022-09-28T16:25:53;17.00;99.90
25668;DHT22;18003;-33.830;151.202;2022-09-28T16:31:05;17.00;99.90
25668;DHT22;18003;-33.830;151.202;2022-09-28T16:33:53;17.00;99.90
25668;DHT22;18003;-33.830;151.202;2022-09-28T16:36:25;17.00;99.90
25668;DHT22;18003;-33.830;151.202;2022-09-28T16:38:57;17.00;99.90
25668;DHT22;18003;-33.830;151.202;2022-09-28T16:41:27;17.00;99.90
25668;DHT22;18003;-33.830;151.202;2022-09-28T16:44:01;17.00;99.90
25668;DHT22;18003;-33.830;151.202;2022-09-28T16:46:38;17.00;99.90
25668;DHT22;18003;-33.830;151.202;2022-09-28T16:49:13;17.00;99.90
25668;DHT22;18003;-33.830;151.202;2022-09-28T16:51:49;16.90;99.90
25668;DHT22;18003;-33.830;151.202;2022-09-28T16:54:21;17.00;99.90
25668;DHT22;18003;-33.830;151.202;2022-09-28T16:57:10;16.90;99.90
25668;DHT22;18003;-33.830;151.202;2022-09-28T16:59:40;16.90;99.90
25668;DHT22;18003;-33.830;151.202;2022-09-28T17:02:21;16.90;99.90
25668;DHT22;18003;-33.830;151.202;2022-09-28T17:04:51;16.90;99.90
25668;DHT22;18003;-33.830;151.202;2022-09-28T17:07:21;16.90;99.90
25668;DHT22;18003;-33.830;151.202;2022-09-28T17:09:51;16.90;99.90
25668;DHT22;18003;-33.830;151.202;2022-09-28T17:12:23;16.90;99.90
25668;DHT22;18003;-33.830;151.202;2022-09-28T17:14:54;16.90;99.90
25668;DHT22;18003;-33.830;151.202;2022-09-28T17:17:24;16.90;99.90
25668;DHT22;18003;-33.830;151.202;2022-09-28T17:19:55;16.90;99.90
25668;DHT22;18003;-33.830;151.202;2022-09-28T17:22:26;16.90;99.90
25668;DHT22;18003;-33.830;151.202;2022-09-28T17:24:56;16.80;99.90
25668;DHT22;18003;-33.830;151.202;2022-09-28T17:27:27;16.90;99.90
25668;DHT22;18003;-33.830;151.202;2022-09-28T17:29:57;16.90;99.90
25668;DHT22;18003;-33.830;151.202;2022-09-28T17:32:28;16.80;99.90
25668;DHT22;18003;-33.830;151.202;2022-09-28T17:34:59;16.80;99.90
25668;DHT22;18003;-33.830;151.202;2022-09-28T17:37:29;16.90;99.90
25668;DHT22;18003;-33.830;151.202;2022-09-28T17:40:00;16.90;99.90
25668;DHT22;18003;-33.830;151.202;2022-09-28T17:42:30;16.90;99.90
25668;DHT22;18003;-33.830;151.202;2022-09-28T17:45:01;16.80;99.90
25668;DHT22;18003;-33.830;151.202;2022-09-28T17:47:31;16.80;99.90
25668;DHT22;18003;-33.830;151.202;2022-09-28T17:50:01;16.80;99.90
25668;DHT22;18003;-33.830;151.202;2022-09-28T17:52:31;16.80;99.90
25668;DHT22;18003;-33.830;151.202;2022-09-28T17:55:01;16.80;99.90
25668;DHT22;18003;-33.830;151.202;2022-09-28T17:57:31;16.70;99.90
25668;DHT22;18003;-33.830;151.202;2022-09-28T18:00:02;16.80;99.90
25668;DHT22;18003;-33.830;151.202;2022-09-28T18:02:32;16.70;99.90
25668;DHT22;18003;-33.830;151.202;2022-09-28T18:05:02;16.70;99.90
25668;DHT22;18003;-33.830;151.202;2022-09-28T18:07:32;16.70;99.90
25668;DHT22;18003;-33.830;151.202;2022-09-28T18:10:02;16.70;99.90